KBOI Airport Information

Runway Information
Runway 09 Length 5000 ft width 75 ft
Elevation 2884 ft Threshold 0 ft Heading 105
Runway 27 Length 5000 ft Width 75 ft
Elevation 2919 ft Threshold 0 ft Heading 285
Runway 10L Length 10000 ft width 150 ft
Elevation 2831 ft Threshold 0 ft Heading 115
Runway 28R Length 10000 ft Width 150 ft
Elevation 2871 ft Threshold 0 ft Heading 295
Runway 10R Length 9763 ft width 150 ft
Elevation 2824 ft Threshold 0 ft Heading 115
Runway 28L Length 9763 ft Width 150 ft
Elevation 2858 ft Threshold 0 ft Heading 295
Airport Frequencies
Type A/D Name APP/DEP Frequency 119.6 MHZ
Type ATIS Name ATIS Frequency 123.9 MHZ
Type CLD Name CLNC DEL Frequency 125.9 MHZ
Type CNTR Name SALT LAKE Frequency 128.05 MHZ
Type GND Name GND Frequency 121.7 MHZ
Type MISC Name ANG OPS Frequency 29.87 MHZ
Type OPS Name ARNG OPS Frequency 41.5 MHZ
Type RDO Name RDO Frequency 122.2 MHZ
Type TWR Name TWR Frequency 118.1 MHZ
Type UNIC Name UNICOM Frequency 122.95 MHZ
Airport Navaids
Type NDB Name Ustik Frequency 359 KHZ
Airport Weather Information & NOTAM
ADDS - METARS form results

(1900 UTC 17 February 2019)
Data provider http://aviationweather.gov/metar/data/
 
METAR text: KBOI 171853Z 30006KT 10SM SCT012 BKN017 OVC044 01/M02 A2993 RMK AO2 SLP151 T00061022
Conditions at: KBOI (BOISE , ID, US) observed 1853 UTC 17 February 2019
Temperature: 0.6°C (33°F)
Dewpoint: -2.2°C (28°F) [RH = 81%]
Pressure (altimeter): 29.93 inches Hg (1013.6 mb)
[Sea-level pressure: 1015.1 mb]
Winds: from the WNW (300 degrees) at 7 MPH (6 knots; 3.1 m/s)
Visibility: 10 or more miles (16+ km)
Ceiling: 1700 feet AGL
Clouds: scattered clouds at 1200 feet AGL
broken clouds at 1700 feet AGL
overcast cloud deck at 4400 feet AGL
Weather: no significant weather observed at this time

METAR text: KBOI 171846Z 29007KT 10SM FEW010 BKN022 OVC044 01/M03 A2993 RMK AO2 T00061028
Conditions at: KBOI (BOISE , ID, US) observed 1846 UTC 17 February 2019
Temperature: 0.6°C (33°F)
Dewpoint: -2.8°C (27°F) [RH = 78%]
Pressure (altimeter): 29.93 inches Hg (1013.6 mb)
Winds: from the WNW (290 degrees) at 8 MPH (7 knots; 3.6 m/s)
Visibility: 10 or more miles (16+ km)
Ceiling: 2200 feet AGL
Clouds: few clouds at 1000 feet AGL
broken clouds at 2200 feet AGL
overcast cloud deck at 4400 feet AGL
Weather: no significant weather observed at this time

METAR text: KBOI 171810Z 29006KT 10SM SCT008 BKN013 OVC041 00/M03 A2992 RMK AO2 T00001028
Conditions at: KBOI (BOISE , ID, US) observed 1810 UTC 17 February 2019
Temperature: 0.0°C (32°F)
Dewpoint: -2.8°C (27°F) [RH = 81%]
Pressure (altimeter): 29.92 inches Hg (1013.3 mb)
Winds: from the WNW (290 degrees) at 7 MPH (6 knots; 3.1 m/s)
Visibility: 10 or more miles (16+ km)
Ceiling: 1300 feet AGL
Clouds: scattered clouds at 800 feet AGL
broken clouds at 1300 feet AGL
overcast cloud deck at 4100 feet AGL
Weather: no significant weather observed at this time

Forecast for: KBOI (BOISE , ID, US)
Text: KBOI 171730Z 1718/1818 31006KT P6SM VCSH SCT015 OVC040
Forecast period: 1800 to 2000 UTC 17 February 2019
Forecast type: FROM: standard forecast or significant change
Winds: from the NW (310 degrees) at 7 MPH (6 knots; 3.1 m/s)
Visibility: 6 or more miles 10+ km)
Ceiling: 4000 feet AGL
Clouds: scattered clouds at 1500 feet AGL
overcast cloud deck at 4000 feet AGL
Weather: VCSH  (showers in vicinity)
Text: TEMPO 1718/1720 BKN015
Forecast period: 1800 to 2000 UTC 17 February 2019
Forecast type: TEMPORARY: The following changes expected for less than half the time period
Visibility: missing
Ceiling: 1500 feet AGL
Clouds: broken clouds at 1500 feet AGL
Weather: no significant weather forecast for this period
Text: FM172000 31008KT P6SM BKN040
Forecast period: 2000 UTC 17 February 2019 to 1500 UTC 18 February 2019
Forecast type: FROM: standard forecast or significant change
Winds: from the NW (310 degrees) at 9 MPH (8 knots; 4.1 m/s)
Visibility: 6 or more miles 10+ km)
Ceiling: 4000 feet AGL
Clouds: broken clouds at 4000 feet AGL
Weather: no significant weather forecast for this period
Text: FM181500 30012KT P6SM BKN040
Forecast period: 1500 to 1800 UTC 18 February 2019
Forecast type: FROM: standard forecast or significant change
Winds: from the WNW (300 degrees) at 14 MPH (12 knots; 6.2 m/s)
Visibility: 6 or more miles 10+ km)
Ceiling: 4000 feet AGL
Clouds: broken clouds at 4000 feet AGL
Weather: no significant weather forecast for this period